PIA701 OPIS-EGCC
Flight info
| Callsign | PIA701 |
|---|---|
| Flight time | N/A |
| Altitude | 32000 |
| Route | KALMI J139 HANGU G796 LAJAK L509 TAPIS M875 AMDAR/K0904F320 T186 FIZLE/K0898F340 T186 LAPZE Z407 ODIVA M161 LEDGI M166 ARISA/K0898F360 L736 ASKIL L979 GRD L32 SOTET/N0477F360 L32 SUWGI T727 DENKO M994 GILAS DCT BUREL DCT HLZ L980 SAS DCT MAWEQ DCT TENLI DCT RAVLO Y70 OTBED |
| Aircraft | B772/H-SDE2E3FGHIJ5LORVWXY/LB1D1 |
Departure
| Time | 2026-04-21 07:46 |
|---|---|
| Airport | Islamabad International Airport (OPIS) |
Arrival
| Time | N/A |
|---|---|
| Airport | Manchester Airport (EGCC) |
| Time | Latitude | Longitude | Altitude | Speed | Heading |
|---|---|---|---|---|---|
| 2026-04-21 06:00 | 33.55552 | 72.83090 | 1774 ft | 0 kts | 144° |
| 2026-04-21 06:01 | 33.55547 | 72.83095 | 1774 ft | 0 kts | 144° |
| 2026-04-21 06:01 | 33.55546 | 72.83096 | 1774 ft | 0 kts | 144° |
| 2026-04-21 07:33 | 33.55549 | 72.83093 | 1775 ft | 2 kts | 144° |
| 2026-04-21 07:33 | 33.55564 | 72.83080 | 1774 ft | 3 kts | 144° |
| 2026-04-21 07:33 | 33.55581 | 72.83066 | 1775 ft | 3 kts | 144° |
| 2026-04-21 07:34 | 33.55597 | 72.83053 | 1775 ft | 2 kts | 144° |
| 2026-04-21 07:34 | 33.55610 | 72.83042 | 1772 ft | 3 kts | 158° |
| 2026-04-21 07:34 | 33.55624 | 72.83037 | 1774 ft | 3 kts | 191° |
| 2026-04-21 07:34 | 33.55637 | 72.83043 | 1773 ft | 3 kts | 226° |
| 2026-04-21 07:35 | 33.55650 | 72.83061 | 1774 ft | 3 kts | 236° |
| 2026-04-21 07:35 | 33.55656 | 72.83072 | 1773 ft | 0 kts | 235° |
| 2026-04-21 07:38 | 33.55655 | 72.83072 | 1774 ft | 0 kts | 235° |
| 2026-04-21 07:38 | 33.55639 | 72.83043 | 1777 ft | 8 kts | 235° |
| 2026-04-21 07:38 | 33.55596 | 72.82969 | 1776 ft | 12 kts | 235° |
| 2026-04-21 07:38 | 33.55550 | 72.82889 | 1778 ft | 12 kts | 235° |
| 2026-04-21 07:39 | 33.55504 | 72.82810 | 1776 ft | 12 kts | 235° |
| 2026-04-21 07:39 | 33.55454 | 72.82724 | 1778 ft | 15 kts | 235° |
| 2026-04-21 07:39 | 33.55389 | 72.82628 | 1777 ft | 12 kts | 208° |
| 2026-04-21 07:39 | 33.55313 | 72.82611 | 1776 ft | 11 kts | 189° |
| 2026-04-21 07:40 | 33.55237 | 72.82595 | 1777 ft | 11 kts | 189° |
| 2026-04-21 07:40 | 33.55184 | 72.82625 | 1776 ft | 6 kts | 105° |
| 2026-04-21 07:40 | 33.55179 | 72.82681 | 1774 ft | 9 kts | 98° |
| 2026-04-21 07:40 | 33.55164 | 72.82776 | 1776 ft | 14 kts | 100° |
| 2026-04-21 07:41 | 33.55146 | 72.82897 | 1775 ft | 16 kts | 100° |
| 2026-04-21 07:41 | 33.55125 | 72.83034 | 1774 ft | 18 kts | 100° |
| 2026-04-21 07:41 | 33.55101 | 72.83194 | 1775 ft | 20 kts | 100° |
| 2026-04-21 07:41 | 33.55076 | 72.83362 | 1776 ft | 20 kts | 101° |
| 2026-04-21 07:42 | 33.55050 | 72.83530 | 1774 ft | 20 kts | 101° |
| 2026-04-21 07:42 | 33.55024 | 72.83697 | 1776 ft | 20 kts | 100° |
| 2026-04-21 07:42 | 33.55007 | 72.83808 | 1776 ft | 20 kts | 100° |
| 2026-04-21 07:42 | 33.54981 | 72.83977 | 1776 ft | 20 kts | 100° |
| 2026-04-21 07:43 | 33.54956 | 72.84145 | 1776 ft | 20 kts | 100° |
| 2026-04-21 07:43 | 33.54931 | 72.84311 | 1773 ft | 20 kts | 100° |
| 2026-04-21 07:43 | 33.54905 | 72.84476 | 1774 ft | 18 kts | 100° |
| 2026-04-21 07:43 | 33.54856 | 72.84547 | 1777 ft | 12 kts | 176° |
| 2026-04-21 07:44 | 33.54774 | 72.84531 | 1773 ft | 13 kts | 191° |
| 2026-04-21 07:44 | 33.54681 | 72.84509 | 1770 ft | 14 kts | 191° |
| 2026-04-21 07:44 | 33.54586 | 72.84488 | 1768 ft | 14 kts | 191° |
| 2026-04-21 07:44 | 33.54525 | 72.84462 | 1768 ft | 7 kts | 230° |
| 2026-04-21 07:45 | 33.54521 | 72.84401 | 1769 ft | 8 kts | 281° |
| 2026-04-21 07:45 | 33.54537 | 72.84297 | 1766 ft | 24 kts | 281° |
| 2026-04-21 07:45 | 33.54613 | 72.83820 | 1766 ft | 97 kts | 281° |
| 2026-04-21 07:45 | 33.54782 | 72.82745 | 1767 ft | 164 kts | 282° |
| 2026-04-21 07:46 | 33.55016 | 72.81200 | 2008 ft | 200 kts | 282° |
| 2026-04-21 07:46 | 33.55267 | 72.79567 | 2895 ft | 197 kts | 283° |
| 2026-04-21 07:46 | 33.55522 | 72.77965 | 3664 ft | 199 kts | 283° |
| 2026-04-21 07:46 | 33.55792 | 72.76259 | 3999 ft | 218 kts | 282° |
| 2026-04-21 07:47 | 33.56073 | 72.74370 | 4343 ft | 235 kts | 279° |
| 2026-04-21 07:47 | 33.55972 | 72.72392 | 4808 ft | 249 kts | 251° |
| 2026-04-21 07:47 | 33.55016 | 72.70616 | 5181 ft | 265 kts | 229° |
| 2026-04-21 07:47 | 33.53890 | 72.68842 | 5526 ft | 277 kts | 249° |
| 2026-04-21 07:48 | 33.53656 | 72.66582 | 6135 ft | 271 kts | 277° |
| 2026-04-21 07:48 | 33.53921 | 72.64323 | 6814 ft | 274 kts | 278° |
| 2026-04-21 07:48 | 33.54157 | 72.62028 | 7495 ft | 280 kts | 276° |
| 2026-04-21 07:48 | 33.54327 | 72.59707 | 8243 ft | 280 kts | 275° |
| 2026-04-21 07:49 | 33.54442 | 72.57341 | 8836 ft | 285 kts | 274° |
| 2026-04-21 07:49 | 33.54522 | 72.54972 | 9560 ft | 286 kts | 273° |
| 2026-04-21 07:49 | 33.54580 | 72.52610 | 10156 ft | 289 kts | 272° |
| 2026-04-21 07:49 | 33.54620 | 72.50148 | 10512 ft | 305 kts | 272° |
| 2026-04-21 07:50 | 33.54655 | 72.47514 | 10650 ft | 327 kts | 272° |
| 2026-04-21 07:50 | 33.54690 | 72.44693 | 10800 ft | 347 kts | 272° |
| 2026-04-21 07:50 | 33.54725 | 72.41738 | 11252 ft | 357 kts | 271° |
| 2026-04-21 07:50 | 33.54744 | 72.38768 | 12116 ft | 356 kts | 271° |
| 2026-04-21 07:51 | 33.54754 | 72.35770 | 12754 ft | 363 kts | 271° |
| 2026-04-21 07:51 | 33.54758 | 72.32719 | 13424 ft | 367 kts | 271° |
| 2026-04-21 07:51 | 33.54763 | 72.29651 | 14140 ft | 368 kts | 271° |
| 2026-04-21 07:51 | 33.54769 | 72.26611 | 14747 ft | 372 kts | 271° |
| 2026-04-21 07:52 | 33.54774 | 72.23468 | 15351 ft | 376 kts | 271° |
| 2026-04-21 07:52 | 33.54780 | 72.20350 | 15960 ft | 379 kts | 271° |
| 2026-04-21 07:52 | 33.54787 | 72.17186 | 16607 ft | 381 kts | 271° |
| 2026-04-21 07:52 | 33.54790 | 72.14001 | 17237 ft | 383 kts | 271° |
| 2026-04-21 07:53 | 33.54794 | 72.10790 | 17815 ft | 386 kts | 271° |
| 2026-04-21 07:53 | 33.54797 | 72.07560 | 18347 ft | 389 kts | 271° |
| 2026-04-21 07:53 | 33.54800 | 72.04300 | 18854 ft | 392 kts | 271° |
| 2026-04-21 07:53 | 33.54767 | 72.01013 | 19365 ft | 394 kts | 269° |
| 2026-04-21 07:54 | 33.54590 | 71.97729 | 19877 ft | 396 kts | 266° |
| 2026-04-21 07:54 | 33.54357 | 71.94426 | 20361 ft | 399 kts | 266° |
| 2026-04-21 07:54 | 33.54134 | 71.91145 | 20861 ft | 401 kts | 267° |
| 2026-04-21 07:54 | 33.53927 | 71.87792 | 21333 ft | 403 kts | 267° |
| 2026-04-21 07:55 | 33.53728 | 71.84438 | 21764 ft | 406 kts | 268° |
| 2026-04-21 07:55 | 33.53531 | 71.81016 | 21981 ft | 415 kts | 268° |
| 2026-04-21 07:55 | 33.53332 | 71.77548 | 22289 ft | 420 kts | 268° |
| 2026-04-21 07:55 | 33.53130 | 71.74036 | 22722 ft | 423 kts | 268° |
| 2026-04-21 07:56 | 33.52924 | 71.70519 | 23223 ft | 423 kts | 268° |
| 2026-04-21 07:56 | 33.52716 | 71.66999 | 23658 ft | 424 kts | 268° |
| 2026-04-21 07:56 | 33.52508 | 71.63461 | 24044 ft | 426 kts | 268° |
| 2026-04-21 07:56 | 33.52299 | 71.59916 | 24421 ft | 428 kts | 268° |
| 2026-04-21 07:57 | 33.52086 | 71.56352 | 24798 ft | 429 kts | 268° |
| 2026-04-21 07:57 | 33.51873 | 71.52772 | 25168 ft | 431 kts | 268° |
| 2026-04-21 07:57 | 33.51656 | 71.49167 | 25513 ft | 433 kts | 267° |
| 2026-04-21 07:57 | 33.51439 | 71.45602 | 25870 ft | 435 kts | 267° |
| 2026-04-21 07:58 | 33.51217 | 71.41977 | 26229 ft | 437 kts | 267° |
| 2026-04-21 07:58 | 33.50992 | 71.38332 | 26578 ft | 439 kts | 267° |
| 2026-04-21 07:58 | 33.50765 | 71.34675 | 26919 ft | 441 kts | 267° |
| 2026-04-21 07:58 | 33.50535 | 71.31000 | 27258 ft | 443 kts | 267° |
| 2026-04-21 07:59 | 33.50304 | 71.27300 | 27577 ft | 446 kts | 267° |
| 2026-04-21 07:59 | 33.50070 | 71.23589 | 27899 ft | 448 kts | 267° |
| 2026-04-21 07:59 | 33.49834 | 71.19869 | 28227 ft | 450 kts | 267° |
| 2026-04-21 07:59 | 33.49597 | 71.16118 | 28540 ft | 452 kts | 266° |
| 2026-04-21 08:00 | 33.49357 | 71.12350 | 28858 ft | 454 kts | 267° |
| 2026-04-21 08:00 | 33.49116 | 71.08577 | 29209 ft | 455 kts | 267° |
| 2026-04-21 08:00 | 33.49032 | 71.04801 | 29407 ft | 454 kts | 277° |
| 2026-04-21 08:00 | 33.49799 | 71.01129 | 29553 ft | 457 kts | 292° |
| 2026-04-21 08:01 | 33.51294 | 70.97759 | 29848 ft | 459 kts | 304° |
| 2026-04-21 08:01 | 33.53360 | 70.94925 | 30095 ft | 459 kts | 315° |
| 2026-04-21 08:01 | 33.55726 | 70.92323 | 30223 ft | 463 kts | 316° |
| 2026-04-21 08:02 | 33.60506 | 70.87117 | 30718 ft | 464 kts | 316° |
| 2026-04-21 08:02 | 33.62882 | 70.84490 | 31006 ft | 463 kts | 315° |
| 2026-04-21 08:02 | 33.65243 | 70.81851 | 31224 ft | 464 kts | 315° |
| 2026-04-21 08:02 | 33.67608 | 70.79187 | 31405 ft | 465 kts | 315° |
| 2026-04-21 08:03 | 33.69969 | 70.76515 | 31633 ft | 465 kts | 315° |
| 2026-04-21 08:03 | 33.72329 | 70.73841 | 31831 ft | 466 kts | 315° |
| 2026-04-21 08:03 | 33.74660 | 70.71196 | 31882 ft | 468 kts | 315° |
| 2026-04-21 08:04 | 33.79379 | 70.65841 | 31929 ft | 464 kts | 315° |
| 2026-04-21 08:04 | 33.84052 | 70.60534 | 31941 ft | 460 kts | 315° |
| 2026-04-21 08:05 | 33.88700 | 70.55247 | 31941 ft | 459 kts | 315° |
| 2026-04-21 08:05 | 33.92977 | 70.49584 | 31943 ft | 457 kts | 306° |
| 2026-04-21 08:06 | 33.96405 | 70.43156 | 31944 ft | 455 kts | 297° |
| 2026-04-21 08:06 | 33.99352 | 70.36393 | 31945 ft | 456 kts | 297° |
| 2026-04-21 08:07 | 34.02302 | 70.29598 | 31947 ft | 457 kts | 297° |
| 2026-04-21 08:07 | 34.05272 | 70.22808 | 31942 ft | 459 kts | 297° |
| 2026-04-21 08:08 | 34.08238 | 70.16047 | 31943 ft | 459 kts | 297° |
| 2026-04-21 08:08 | 34.11228 | 70.09214 | 31946 ft | 460 kts | 297° |
| 2026-04-21 08:09 | 34.14216 | 70.02369 | 31953 ft | 462 kts | 297° |
| 2026-04-21 08:09 | 34.17213 | 69.95495 | 31958 ft | 462 kts | 297° |
| 2026-04-21 08:10 | 34.20206 | 69.88597 | 31961 ft | 463 kts | 296° |
| 2026-04-21 08:10 | 34.23193 | 69.81680 | 31941 ft | 464 kts | 296° |
| 2026-04-21 08:11 | 34.26173 | 69.74772 | 31946 ft | 464 kts | 296° |
| 2026-04-21 08:11 | 34.29147 | 69.67859 | 31962 ft | 464 kts | 296° |
| 2026-04-21 08:12 | 34.32101 | 69.60981 | 31965 ft | 464 kts | 296° |
| 2026-04-21 08:12 | 34.35097 | 69.53994 | 31957 ft | 464 kts | 296° |
| 2026-04-21 08:13 | 34.38045 | 69.47104 | 31965 ft | 463 kts | 296° |
| 2026-04-21 08:13 | 34.41002 | 69.40177 | 31953 ft | 463 kts | 296° |
| 2026-04-21 08:14 | 34.43960 | 69.33235 | 31953 ft | 462 kts | 296° |
| 2026-04-21 08:14 | 34.46902 | 69.26317 | 31944 ft | 462 kts | 296° |
| 2026-04-21 08:15 | 34.49905 | 69.19452 | 31943 ft | 460 kts | 302° |
| 2026-04-21 08:15 | 34.54250 | 69.13718 | 31962 ft | 465 kts | 318° |